Terminal Aerodrome Forecast
Issued by NWS Wichita, KS

Home | Current Version | Previous Version | Text Only | Print | Product List | Glossary On
Versions: 1 2 3 4 5 6 7 8 9 10 11 12 13 14 15 16 17 18 19 20
831
FTUS43 KICT 270959 AAB
TAFICT
TAF AMD
KICT 270959Z 2710/2806 06004KT P6SM FEW050
      TEMPO 2711/2713 5SM BR
     FM271600 16007KT P6SM SCT025
     FM271800 15007KT P6SM SCT040=

USA.gov is the U.S. government's official web portal to all federal, state and local government web resources and services.